Hebron, IN (46341)

3:12 AM CDT on September 21, 2014 (GMT -0500)
KINHEBRO3 | Change Station
CLOSE
Current Station
Personal Weather Station
Location: Hebron, IN
Elevation: 705 ft
Nearby Weather Stations

Elev 705 ft 41.32 °N, 87.20 °W | Updated 5 minutes ago

Overcast
Overcast
66.1 °F
Feels Like 66.1 °F
N
4.0
Wind Variable Wind from West

Today
High -- | Low -- °F
--% Chance of Precip.
Yesterday
High -- | Low -- °F
Precip. -- in
6:35 AM 6:47 PM
Waning Crescent, 8% visible
Pressure 29.73 in
Visibility 10.0 miles
Clouds Few 8000 ft
Mostly Cloudy 10000 ft
Dew Point 66 °F
Humidity 100%
Rainfall 0.00 in
Snow Depth Not available.
UV 0 out of 12
Pollen 5.60 out of 12
Air Quality Not available.
Flu Activity Not available.
METAR KVPZ 210753Z AUTO 26008KT 10SM FEW080 BKN100 17/16 A2974 RMK AO2 RAE07 SLP067 P0001 T01720161 TSNO

More Conditions Fewer Conditions

Pressure 29.73 in
Visibility 10.0 miles
Clouds Few 8000 ft
Mostly Cloudy 10000 ft
Dew Point 66 °F
Humidity 100%
Rainfall 0.00 in
Snow Depth Not available.
UV 0 out of 12
Pollen 5.60 out of 12
Air Quality Not available.
Flu Activity Not available.
METAR KVPZ 210753Z AUTO 26008KT 10SM FEW080 BKN100 17/16 A2974 RMK AO2 RAE07 SLP067 P0001 T01720161 TSNO

More Conditions Fewer Conditions

10-Day Weather Forecast

Almanac

Astronomy

Sep. 21, 2014 Rise Set
Actual Time 6:35 AM CDT 6:47 PM CDT
Civil Twilight 6:07 AM CDT 7:15 PM CDT
Nautical Twilight 5:35 AM CDT 7:47 PM CDT
Astronomical Twilight 5:02 AM CDT 8:20 PM CDT
Moon 4:07 AM CDT 5:24 PM CDT
Length of Visible Light 13h 07m
Length of Day
12h 12m
Tomorrow will be 2m 44s shorter.
Waning Crescent, 8% of the Moon is Illuminated
Today
Waning Crescent
Sep 24
New
Oct 1
First Quarter
Oct 8
Full
Oct 15
Last Quarter

Today's Extremes

State Highs State Lows

Community

WunderPhotos

Upload Photos

1,755,101 photos uploaded!

Nearby

Snow Depth

Station Depth Elevation
No new snow has been reported.

Earthquake Activity

City Distance Mag. Time & Date
No recent earthquake activity has been reported nearby.
Minimum magnitude displayed is 2.5.

Coastal Water Temperatures

Place Temperature
No Stations Reporting

Nearby Weather Stations